Time;durP1;ratioP1;P1;durP2;ratioP2;P2;SDS_P1;SDS_P2;PMS_P1;PMS_P2;Temp;Humidity;BMP_temperature;BMP_pressure;BME280_temperature;BME280_humidity;BME280_pressure;Samples;Min_cycle;Max_cycle;Signal;HPM_P1;HPM_P2
2023/09/09 00:01:39;;;;;;;13.73;8.70;;;;;;;16.85;100.00;101121.06;5028706;28;20427;-82
2023/09/09 00:04:08;;;;;;;12.83;8.50;;;;;;;16.79;100.00;101120.38;5030142;28;20426;-83
2023/09/09 00:06:37;;;;;;;14.15;8.65;;;;;;;16.77;100.00;101119.03;5028538;28;20427;-82
2023/09/09 00:09:10;;;;;;;14.32;8.45;;;;;;;16.77;100.00;101110.81;5029751;28;20426;-82
2023/09/09 00:11:43;;;;;;;13.18;8.98;;;;;;;16.71;100.00;101123.03;5029971;28;20784;-83
2023/09/09 00:14:17;;;;;;;13.77;8.83;;;;;;;16.69;100.00;101106.84;5030416;28;20883;-82
2023/09/09 00:16:45;;;;;;;13.27;8.75;;;;;;;16.67;100.00;101120.09;5028007;28;20430;-82
2023/09/09 00:19:21;;;;;;;13.35;8.70;;;;;;;16.57;100.00;101112.06;5034651;28;20432;-82
2023/09/09 00:21:56;;;;;;;12.70;8.85;;;;;;;16.55;100.00;101109.63;5026326;28;20450;-81
2023/09/09 00:24:29;;;;;;;13.40;8.70;;;;;;;16.50;100.00;101104.25;5028037;28;20438;-81
2023/09/09 00:26:59;;;;;;;13.57;9.20;;;;;;;16.51;100.00;101102.34;5033786;28;20427;-82
2023/09/09 00:29:33;;;;;;;15.40;9.13;;;;;;;16.49;100.00;101097.16;5030577;28;20426;-81
2023/09/09 00:32:06;;;;;;;14.55;8.90;;;;;;;16.53;100.00;101100.91;5028211;28;20415;-81
2023/09/09 00:34:39;;;;;;;14.32;8.98;;;;;;;16.58;100.00;101102.72;5027770;28;20442;-82
2023/09/09 00:37:09;;;;;;;12.87;8.67;;;;;;;16.59;100.00;101096.09;5043570;28;20430;-82
2023/09/09 00:39:37;;;;;;;15.10;9.20;;;;;;;16.60;100.00;101097.72;5025958;28;20425;-85
2023/09/09 00:42:10;;;;;;;14.07;8.88;;;;;;;16.65;100.00;101098.44;5023329;28;20435;-81
2023/09/09 00:44:43;;;;;;;13.57;9.20;;;;;;;16.57;100.00;101087.34;5030208;28;20767;-82
2023/09/09 00:47:12;;;;;;;15.43;8.93;;;;;;;16.53;100.00;101098.16;5028561;28;20419;-82
2023/09/09 00:49:40;;;;;;;13.60;9.05;;;;;;;16.54;100.00;101085.22;5033727;28;20495;-82
2023/09/09 00:52:15;;;;;;;12.05;8.55;;;;;;;16.49;100.00;101086.97;5032696;28;20438;-84
2023/09/09 00:54:48;;;;;;;13.80;9.25;;;;;;;16.47;100.00;101085.66;5028300;28;20903;-82
2023/09/09 00:57:17;;;;;;;15.18;9.60;;;;;;;16.49;100.00;101089.72;5027881;28;20418;-83
2023/09/09 00:59:47;;;;;;;13.70;8.80;;;;;;;16.46;100.00;101081.28;5030840;28;20431;-82
2023/09/09 01:02:20;;;;;;;12.80;9.15;;;;;;;16.43;100.00;101065.41;5027224;28;20432;-82
2023/09/09 01:04:54;;;;;;;14.48;9.05;;;;;;;16.43;100.00;101082.72;5048199;28;20954;-83
2023/09/09 01:07:24;;;;;;;12.68;8.93;;;;;;;16.40;100.00;101079.78;5031384;28;20423;-82
2023/09/09 01:09:52;;;;;;;13.90;9.45;;;;;;;16.38;100.00;101074.59;5032974;28;20442;-82
2023/09/09 01:12:27;;;;;;;13.93;9.10;;;;;;;16.37;100.00;101072.97;5031319;28;20751;-82
2023/09/09 01:15:00;;;;;;;13.63;8.75;;;;;;;16.33;100.00;101080.19;5032320;28;20411;-82
2023/09/09 01:17:28;;;;;;;14.00;9.10;;;;;;;16.26;100.00;101071.56;5033346;28;20414;-83
2023/09/09 01:19:58;;;;;;;14.07;9.25;;;;;;;16.27;100.00;101068.53;5029585;28;20431;-82
2023/09/09 01:22:33;;;;;;;13.75;9.50;;;;;;;16.33;100.00;101071.97;5030001;28;20428;-82
2023/09/09 01:25:07;;;;;;;13.77;8.90;;;;;;;16.26;100.00;101075.13;5030936;28;20411;-83
2023/09/09 01:27:41;;;;;;;15.68;9.30;;;;;;;16.21;100.00;101071.69;5030035;28;20430;-82
2023/09/09 01:30:11;;;;;;;12.55;8.88;;;;;;;16.27;100.00;101074.00;5030195;28;20763;-82
2023/09/09 01:32:39;;;;;;;15.48;9.48;;;;;;;16.27;100.00;101073.22;5023614;28;20777;-83
2023/09/09 01:35:08;;;;;;;12.77;8.90;;;;;;;16.24;100.00;101074.63;5031350;28;20423;-82
2023/09/09 01:37:42;;;;;;;15.65;9.18;;;;;;;16.29;100.00;101076.44;5044556;28;20474;-82
2023/09/09 01:40:16;;;;;;;14.05;9.68;;;;;;;16.24;100.00;101076.53;5028898;28;20434;-82
2023/09/09 01:42:49;;;;;;;14.52;9.20;;;;;;;16.25;100.00;101070.75;5027601;28;20438;-83
2023/09/09 01:45:18;;;;;;;13.25;9.05;;;;;;;16.18;100.00;101072.31;5023185;28;20427;-82
2023/09/09 01:47:51;;;;;;;14.32;9.50;;;;;;;16.18;100.00;101072.31;5032146;28;20438;-81
2023/09/09 01:50:24;;;;;;;14.65;9.20;;;;;;;16.28;100.00;101080.31;5024867;28;20426;-81
2023/09/09 01:52:54;;;;;;;13.10;9.48;;;;;;;16.23;100.00;101070.25;5030429;28;20437;-83
2023/09/09 01:55:27;;;;;;;12.93;8.97;;;;;;;16.24;100.00;101071.06;5031639;28;20987;-82
2023/09/09 01:58:00;;;;;;;15.07;9.65;;;;;;;16.19;100.00;101074.75;5039842;28;20919;-82
2023/09/09 02:00:29;;;;;;;14.68;9.52;;;;;;;16.20;100.00;101067.31;5025760;28;21055;-83
2023/09/09 02:03:02;;;;;;;13.25;9.18;;;;;;;16.23;100.00;101069.44;5031170;28;20431;-82
2023/09/09 02:05:36;;;;;;;13.82;9.38;;;;;;;16.21;100.00;101068.94;5029046;28;21233;-82
2023/09/09 02:08:10;;;;;;;13.95;9.57;;;;;;;16.17;100.00;101068.72;5030473;28;20423;-81
2023/09/09 02:10:43;;;;;;;15.02;9.02;;;;;;;16.17;100.00;101065.97;5029267;28;20968;-82
2023/09/09 02:13:11;;;;;;;13.77;9.55;;;;;;;16.13;100.00;101076.78;5030258;28;20431;-82
2023/09/09 02:15:45;;;;;;;15.30;9.55;;;;;;;16.17;100.00;101074.22;5024423;28;20427;-81
2023/09/09 02:18:13;;;;;;;14.85;9.25;;;;;;;16.14;100.00;101072.09;5029947;28;20890;-82
2023/09/09 02:20:41;;;;;;;15.48;9.25;;;;;;;16.05;100.00;101072.00;5044222;28;20431;-81
2023/09/09 02:23:11;;;;;;;13.70;9.80;;;;;;;16.13;100.00;101071.28;5028782;28;20887;-83
2023/09/09 02:25:39;;;;;;;14.20;9.30;;;;;;;16.14;100.00;101063.84;5027789;28;20427;-82
2023/09/09 02:28:13;;;;;;;13.27;9.27;;;;;;;16.21;100.00;101075.22;5040963;28;20903;-82
2023/09/09 02:30:46;;;;;;;14.57;9.75;;;;;;;16.20;100.00;101064.56;5031087;28;20431;-83
2023/09/09 02:33:19;;;;;;;15.48;9.65;;;;;;;16.09;100.00;101064.00;5042491;28;20438;-82
2023/09/09 02:35:53;;;;;;;13.45;9.00;;;;;;;16.02;100.00;101063.56;5029486;28;20427;-82
2023/09/09 02:38:27;;;;;;;14.55;9.60;;;;;;;15.97;100.00;101064.50;5028187;28;20431;-82
2023/09/09 02:41:00;;;;;;;14.10;9.52;;;;;;;15.89;100.00;101055.03;5030108;28;20442;-82
2023/09/09 02:43:34;;;;;;;14.43;9.90;;;;;;;15.90;100.00;101059.41;5028639;28;20442;-84
2023/09/09 02:46:07;;;;;;;14.30;9.38;;;;;;;15.87;100.00;101053.72;5027642;28;20423;-83
2023/09/09 02:48:40;;;;;;;14.35;9.32;;;;;;;15.82;100.00;101054.66;5042134;28;20439;-83
2023/09/09 02:51:13;;;;;;;14.98;9.48;;;;;;;15.79;100.00;101055.25;5044433;28;20438;-81
2023/09/09 02:53:48;;;;;;;14.45;9.75;;;;;;;15.71;100.00;101055.97;5028800;28;20795;-82
2023/09/09 02:56:17;;;;;;;15.60;10.35;;;;;;;15.68;100.00;101051.09;5027429;28;20891;-84
2023/09/09 02:58:50;;;;;;;17.53;10.10;;;;;;;15.62;100.00;101047.63;5026412;28;20477;-83
2023/09/09 03:01:24;;;;;;;13.40;9.82;;;;;;;15.59;100.00;101045.47;5028349;28;20422;-84
2023/09/09 03:03:52;;;;;;;16.10;10.35;;;;;;;15.54;100.00;101051.09;5029897;28;20423;-82
2023/09/09 03:06:25;;;;;;;14.60;10.07;;;;;;;15.51;100.00;101049.75;5027643;28;20437;-82
2023/09/09 03:08:55;;;;;;;15.02;10.60;;;;;;;15.47;100.00;101052.28;5028194;28;20767;-81
2023/09/09 03:11:28;;;;;;;14.80;10.48;;;;;;;15.53;100.00;101049.44;5022706;28;20935;-82
2023/09/09 03:14:02;;;;;;;14.52;10.20;;;;;;;15.59;100.00;101050.97;5027332;28;20426;-82
2023/09/09 03:16:35;;;;;;;14.00;10.13;;;;;;;15.55;100.00;101037.06;5022534;28;20443;-83
2023/09/09 03:19:03;;;;;;;13.93;10.25;;;;;;;15.53;100.00;101033.00;5023732;28;20431;-82
2023/09/09 03:21:32;;;;;;;15.38;10.07;;;;;;;15.51;100.00;101027.00;5026463;28;21044;-81
2023/09/09 03:24:07;;;;;;;14.80;10.52;;;;;;;15.42;100.00;101030.44;5024209;28;20514;-83
2023/09/09 03:26:40;;;;;;;15.82;10.70;;;;;;;15.45;100.00;101034.50;5025128;28;20426;-83
2023/09/09 03:29:08;;;;;;;16.80;10.63;;;;;;;15.47;100.00;101027.59;5023809;28;20426;-82
2023/09/09 03:31:36;;;;;;;14.95;10.48;;;;;;;15.38;100.00;101028.63;5022747;28;20928;-82
2023/09/09 03:34:10;;;;;;;14.88;10.55;;;;;;;15.42;100.00;101030.44;5027169;28;20930;-84
2023/09/09 03:36:44;;;;;;;15.38;10.20;;;;;;;15.45;100.00;101038.06;5029831;28;21094;-80
2023/09/09 03:39:18;;;;;;;15.05;10.40;;;;;;;15.42;100.00;101032.38;5042731;28;20431;-82
2023/09/09 03:41:51;;;;;;;14.68;10.85;;;;;;;15.45;100.00;101027.09;5040828;28;20434;-83
2023/09/09 03:44:24;;;;;;;15.93;10.63;;;;;;;15.42;100.00;101026.88;5027474;28;20427;-82
2023/09/09 03:46:58;;;;;;;14.68;10.75;;;;;;;15.50;100.00;101028.94;5028612;28;20423;-81
2023/09/09 03:49:26;;;;;;;14.60;10.50;;;;;;;15.53;100.00;101031.06;5024193;28;20435;-81
2023/09/09 03:51:59;;;;;;;15.48;10.98;;;;;;;15.45;100.00;101026.28;5023491;28;20435;-82
2023/09/09 03:54:34;;;;;;;13.52;9.93;;;;;;;15.48;100.00;101031.97;5027675;28;20427;-82
2023/09/09 03:57:08;;;;;;;17.43;10.90;;;;;;;15.44;100.00;101030.97;5041897;28;20423;-83
2023/09/09 03:59:36;;;;;;;16.20;10.77;;;;;;;15.37;100.00;101033.31;5027304;28;20439;-82
2023/09/09 04:02:09;;;;;;;14.88;10.43;;;;;;;15.34;100.00;101027.59;5027696;28;20419;-81
2023/09/09 04:04:43;;;;;;;15.45;10.77;;;;;;;15.27;100.00;101030.72;5027027;28;20506;-85
2023/09/09 04:07:11;;;;;;;19.25;11.30;;;;;;;15.26;100.00;101029.94;5027520;28;20423;-83
2023/09/09 04:09:46;;;;;;;15.38;11.00;;;;;;;15.27;100.00;101034.31;5024648;28;20434;-82
2023/09/09 04:12:19;;;;;;;16.67;11.10;;;;;;;15.20;100.00;101036.63;5027518;28;20427;-82
2023/09/09 04:14:52;;;;;;;16.87;11.37;;;;;;;15.21;100.00;101038.25;5023040;28;20435;-82
2023/09/09 04:17:26;;;;;;;15.93;10.88;;;;;;;15.19;100.00;101036.91;5029772;28;20419;-82
2023/09/09 04:19:59;;;;;;;16.15;10.88;;;;;;;15.18;100.00;101035.28;5025834;28;20430;-82
2023/09/09 04:22:32;;;;;;;14.43;10.82;;;;;;;15.14;100.00;101033.16;5025677;28;20799;-83
2023/09/09 04:25:02;;;;;;;17.57;11.10;;;;;;;15.05;100.00;101036.91;5029998;28;20442;-82
2023/09/09 04:27:35;;;;;;;15.02;10.85;;;;;;;15.03;100.00;101031.72;5025354;28;20892;-81
2023/09/09 04:30:04;;;;;;;15.35;11.35;;;;;;;15.08;100.00;101028.91;5029269;28;20414;-84
2023/09/09 04:32:37;;;;;;;16.15;10.63;;;;;;;15.07;100.00;101032.75;5032118;28;20425;-82
2023/09/09 04:35:10;;;;;;;16.83;11.43;;;;;;;15.02;100.00;101038.31;5028956;28;21073;-83
2023/09/09 04:37:43;;;;;;;15.63;10.80;;;;;;;14.96;100.00;101032.09;5033109;28;20422;-81
2023/09/09 04:40:19;;;;;;;16.67;11.40;;;;;;;14.94;100.00;101039.81;5028989;28;20426;-82
2023/09/09 04:42:47;;;;;;;17.35;11.57;;;;;;;14.88;100.00;101041.00;5023541;28;20438;-84
2023/09/09 04:45:23;;;;;;;15.32;11.25;;;;;;;14.75;100.00;101039.06;5026350;28;20781;-83
2023/09/09 04:47:51;;;;;;;19.13;11.52;;;;;;;14.68;100.00;101033.97;5032552;28;20422;-81
2023/09/09 04:50:25;;;;;;;18.30;12.27;;;;;;;14.78;100.00;101035.72;5046411;28;20430;-83
2023/09/09 04:52:58;;;;;;;15.80;11.45;;;;;;;14.84;100.00;101039.19;5030384;28;20449;-83
2023/09/09 04:55:33;;;;;;;18.30;12.30;;;;;;;14.86;100.00;101039.69;5046369;28;20430;-82
2023/09/09 04:58:10;;;;;;;16.35;11.60;;;;;;;14.87;100.00;101047.59;5028482;28;20816;-83
2023/09/09 05:00:38;;;;;;;17.52;11.68;;;;;;;14.88;100.00;101048.44;5028265;28;20423;-83
2023/09/09 05:03:11;;;;;;;15.07;11.57;;;;;;;14.90;100.00;101048.94;5029232;28;21154;-82
2023/09/09 05:05:45;;;;;;;17.02;12.05;;;;;;;14.98;100.00;101044.69;5029683;28;20947;-82
2023/09/09 05:08:13;;;;;;;16.85;11.25;;;;;;;15.01;100.00;101049.56;5032220;28;20883;-83
2023/09/09 05:10:49;;;;;;;16.35;12.35;;;;;;;15.01;100.00;101042.19;5028652;28;20510;-82
2023/09/09 05:13:22;;;;;;;15.47;11.73;;;;;;;15.08;100.00;101050.00;5027079;28;20422;-81
2023/09/09 05:15:58;;;;;;;17.02;12.45;;;;;;;15.10;100.00;101047.78;5028544;28;20433;-81
2023/09/09 05:18:27;;;;;;;18.67;12.05;;;;;;;15.17;100.00;101050.94;5029318;28;20438;-82
2023/09/09 05:20:55;;;;;;;17.08;12.00;;;;;;;15.29;100.00;101044.97;5027065;28;20432;-82
2023/09/09 05:23:28;;;;;;;19.37;12.43;;;;;;;15.32;100.00;101054.53;5046830;28;20775;-83
2023/09/09 05:26:03;;;;;;;17.13;11.70;;;;;;;15.33;100.00;101048.72;5047725;28;20427;-82
2023/09/09 05:28:37;;;;;;;17.40;12.15;;;;;;;15.37;100.00;101047.00;5030157;28;20418;-83
2023/09/09 05:31:06;;;;;;;16.65;11.48;;;;;;;15.45;100.00;101051.78;5024829;28;20433;-83
2023/09/09 05:33:39;;;;;;;16.77;11.57;;;;;;;15.53;100.00;101044.78;5028933;28;20467;-82
2023/09/09 05:36:12;;;;;;;16.83;11.68;;;;;;;15.48;100.00;101045.69;5029306;28;20787;-82
2023/09/09 05:38:41;;;;;;;17.50;11.75;;;;;;;15.53;100.00;101044.78;5032437;28;20434;-81
2023/09/09 05:41:10;;;;;;;19.10;12.43;;;;;;;15.64;100.00;101050.88;5043054;28;20431;-82
2023/09/09 05:43:39;;;;;;;19.70;11.65;;;;;;;15.68;100.00;101053.84;5043486;28;20474;-83
2023/09/09 05:46:12;;;;;;;16.73;11.70;;;;;;;15.69;100.00;101056.25;5026532;28;20760;-82
2023/09/09 05:48:46;;;;;;;17.00;11.80;;;;;;;15.74;100.00;101047.09;5025475;28;20420;-81
2023/09/09 05:51:14;;;;;;;17.08;11.40;;;;;;;15.74;100.00;101056.16;5028060;28;20418;-82
2023/09/09 05:53:48;;;;;;;17.83;11.95;;;;;;;15.77;100.00;101044.56;5026309;28;20427;-84
2023/09/09 05:56:18;;;;;;;16.85;12.05;;;;;;;15.81;100.00;101053.03;5025749;28;20985;-82
2023/09/09 05:58:51;;;;;;;19.20;11.32;;;;;;;15.81;100.00;101053.84;5027895;28;20450;-83
2023/09/09 06:01:19;;;;;;;17.02;11.90;;;;;;;15.81;100.00;101042.88;5043173;28;20526;-84
2023/09/09 06:03:54;;;;;;;16.80;12.10;;;;;;;15.87;100.00;101054.56;5024334;28;20797;-83
2023/09/09 06:06:23;;;;;;;16.08;11.88;;;;;;;15.93;100.00;101050.56;5042419;28;20442;-82
2023/09/09 06:08:57;;;;;;;16.42;11.48;;;;;;;15.98;100.00;101046.91;5026656;28;20433;-82
2023/09/09 06:11:27;;;;;;;21.55;11.80;;;;;;;16.00;100.00;101052.09;5043440;28;20434;-83
2023/09/09 06:14:00;;;;;;;16.27;11.57;;;;;;;15.95;100.00;101048.34;5031137;28;20419;-82
2023/09/09 06:16:29;;;;;;;16.52;11.45;;;;;;;15.98;100.00;101053.22;5027683;28;20446;-83
2023/09/09 06:19:03;;;;;;;18.98;12.00;;;;;;;15.99;100.00;101059.50;5044243;28;20435;-82
2023/09/09 06:21:31;;;;;;;17.58;12.10;;;;;;;16.06;100.00;101059.94;5028570;28;20434;-83
2023/09/09 06:24:06;;;;;;;17.95;11.70;;;;;;;16.13;100.00;101052.06;5025582;28;20423;-82
2023/09/09 06:26:43;;;;;;;15.83;11.43;;;;;;;16.23;100.00;101059.28;5028709;28;20427;-84
2023/09/09 06:29:16;;;;;;;19.05;11.98;;;;;;;16.29;100.00;101059.97;5029348;28;20436;-81
2023/09/09 06:31:44;;;;;;;16.33;11.27;;;;;;;16.43;100.00;101058.00;5028221;28;20430;-83
2023/09/09 06:34:13;;;;;;;16.88;11.23;;;;;;;16.48;100.00;101059.81;5029711;28;20453;-82
2023/09/09 06:36:41;;;;;;;16.05;11.13;;;;;;;16.52;100.00;101059.97;5028795;28;20442;-82
2023/09/09 06:39:09;;;;;;;19.52;11.50;;;;;;;16.53;100.00;101053.38;5019358;28;20426;-81
2023/09/09 06:41:44;;;;;;;16.40;11.18;;;;;;;16.58;100.00;101053.25;5029315;28;20987;-83
2023/09/09 06:44:17;;;;;;;15.20;11.18;;;;;;;16.69;100.00;101062.88;5031374;28;20427;-82
2023/09/09 06:46:50;;;;;;;15.40;11.20;;;;;;;16.75;100.00;101058.91;5028899;28;21033;-82
2023/09/09 06:49:23;;;;;;;20.38;11.32;;;;;;;16.82;100.00;101052.94;5030950;28;20438;-82
2023/09/09 06:51:53;;;;;;;17.27;11.38;;;;;;;16.96;100.00;101069.41;5029451;28;20802;-82
2023/09/09 06:54:26;;;;;;;15.68;10.63;;;;;;;16.98;100.00;101072.66;5028983;28;20442;-84
2023/09/09 06:57:00;;;;;;;16.80;11.50;;;;;;;16.86;100.00;101075.91;5029316;28;20423;-84
2023/09/09 06:59:35;;;;;;;18.70;11.77;;;;;;;16.91;100.00;101073.09;5042417;28;20437;-82
2023/09/09 07:02:03;;;;;;;16.90;11.30;;;;;;;16.98;100.00;101070.69;5023413;28;20431;-81
2023/09/09 07:04:36;;;;;;;17.52;11.30;;;;;;;17.06;100.00;101071.09;5028130;28;20423;-82
2023/09/09 07:07:09;;;;;;;15.38;11.43;;;;;;;17.16;100.00;101068.88;5041775;28;20427;-82
2023/09/09 07:09:43;;;;;;;17.15;11.45;;;;;;;17.16;100.00;101068.06;5027888;28;20434;-81
2023/09/09 07:12:12;;;;;;;16.90;11.40;;;;;;;17.20;100.00;101073.75;5029030;28;20415;-81
2023/09/09 07:14:45;;;;;;;16.13;12.17;;;;;;;17.25;100.00;101065.34;5027231;28;20800;-81
2023/09/09 07:17:18;;;;;;;16.35;12.00;;;;;;;17.37;100.00;101070.28;5027627;28;20426;-81
2023/09/09 07:19:47;;;;;;;16.10;11.02;;;;;;;17.54;100.00;101069.53;5026646;28;20423;-81
2023/09/09 07:22:20;;;;;;;15.38;11.02;;;;;;;17.58;100.00;101068.59;5024601;28;20439;-83
2023/09/09 07:24:53;;;;;;;17.40;11.37;;;;;;;17.66;100.00;101067.00;5026613;28;20423;-81
2023/09/09 07:27:28;;;;;;;15.93;10.98;;;;;;;17.69;100.00;101069.13;5028687;28;20779;-81
2023/09/09 07:29:56;;;;;;;17.77;11.20;;;;;;;17.79;100.00;101065.28;5027905;28;20921;-82
2023/09/09 07:32:29;;;;;;;19.33;11.05;;;;;;;17.94;100.00;101059.34;5028891;28;20426;-80
2023/09/09 07:34:57;;;;;;;16.65;10.73;;;;;;;18.00;100.00;101063.56;5029304;28;20426;-81
2023/09/09 07:37:30;;;;;;;15.50;10.73;;;;;;;18.08;100.00;101066.66;5024514;28;20443;-81
2023/09/09 07:40:04;;;;;;;15.60;10.50;;;;;;;18.15;100.00;101078.00;5027790;28;20435;-81
2023/09/09 07:42:39;;;;;;;14.52;10.23;;;;;;;18.24;100.00;101081.56;5027216;28;20423;-80
2023/09/09 07:45:12;;;;;;;13.68;10.38;;;;;;;18.29;100.00;101070.41;5027632;28;20430;-81
2023/09/09 07:47:40;;;;;;;14.45;10.10;;;;;;;18.43;100.00;101067.50;5027988;28;20831;-81
2023/09/09 07:50:13;;;;;;;15.30;10.60;;;;;;;18.51;100.00;101074.94;5045273;28;20434;-81
2023/09/09 07:52:46;;;;;;;16.30;10.60;;;;;;;18.61;100.00;101068.28;5043152;28;20423;-79
2023/09/09 07:55:20;;;;;;;14.95;10.35;;;;;;;18.61;100.00;101064.75;5025881;28;20434;-81
2023/09/09 07:57:49;;;;;;;16.40;10.45;;;;;;;18.68;100.00;101071.41;5028104;28;20415;-79
2023/09/09 08:00:18;;;;;;;14.53;10.07;;;;;;;18.81;100.00;101068.75;5027601;28;20430;-81
2023/09/09 08:02:46;;;;;;;15.27;10.32;;;;;;;18.88;100.00;101062.78;5022958;28;20434;-80
2023/09/09 08:05:14;;;;;;;15.13;10.20;;;;;;;18.91;100.00;101064.91;5023050;28;20460;-80
2023/09/09 08:07:43;;;;;;;13.73;9.52;;;;;;;18.98;100.00;101065.22;5024317;28;20431;-80
2023/09/09 08:10:17;;;;;;;14.63;9.75;;;;;;;19.08;100.00;101064.84;5027013;28;20792;-82
2023/09/09 08:12:45;;;;;;;14.00;9.95;;;;;;;19.27;100.00;101071.97;5025637;28;20439;-80
2023/09/09 08:15:21;;;;;;;13.10;9.50;;;;;;;19.27;100.00;101064.47;5024295;28;20430;-81
2023/09/09 08:17:54;;;;;;;15.00;9.57;;;;;;;19.29;100.00;101066.91;5028225;28;20446;-83
2023/09/09 08:20:27;;;;;;;14.53;9.60;;;;;;;19.35;100.00;101071.13;5025810;28;20929;-83
2023/09/09 08:22:56;;;;;;;13.50;9.23;;;;;;;19.35;100.00;101071.91;5042102;28;20429;-81
2023/09/09 08:25:32;;;;;;;14.65;9.60;;;;;;;19.42;100.00;101076.94;5041753;28;20424;-81
2023/09/09 08:28:01;;;;;;;13.93;9.40;;;;;;;19.59;100.00;101080.78;5039951;28;20434;-82
2023/09/09 08:30:36;;;;;;;14.15;9.38;;;;;;;19.58;100.00;101070.84;5022537;28;20467;-84
2023/09/09 08:33:05;;;;;;;14.43;9.32;;;;;;;19.64;100.00;101077.84;5028077;28;20423;-83
2023/09/09 08:35:33;;;;;;;16.00;8.77;;;;;;;19.76;100.00;101077.94;5029202;28;20414;-84
2023/09/09 08:38:01;;;;;;;14.18;9.10;;;;;;;19.78;100.00;101075.63;5030923;28;20430;-83
2023/09/09 08:40:35;;;;;;;11.43;8.88;;;;;;;19.94;100.00;101075.91;5029649;28;20422;-85
2023/09/09 08:43:20;;;;;;;14.15;8.95;;;;;;;20.07;100.00;101081.53;5025746;28;20423;-84
2023/09/09 08:46:03;;;;;;;14.70;9.18;;;;;;;20.18;100.00;101078.03;5024150;28;20428;-85
2023/09/09 08:48:37;;;;;;;15.38;9.10;;;;;;;20.24;100.00;101075.06;5024896;28;20411;-84
2023/09/09 08:51:07;;;;;;;15.73;8.90;;;;;;;20.45;100.00;101072.31;5027139;28;20442;-84
2023/09/09 08:53:42;;;;;;;13.88;8.50;;;;;;;20.52;100.00;101078.91;5019626;28;20777;-84
2023/09/09 08:56:12;;;;;;;13.20;8.68;;;;;;;20.73;100.00;101078.91;5028246;28;20787;-84
2023/09/09 08:58:45;;;;;;;13.15;8.60;;;;;;;20.78;100.00;101083.41;5027778;28;20426;-83
2023/09/09 09:01:22;;;;;;;13.98;8.40;;;;;;;20.73;100.00;101084.44;5045115;28;20415;-84
2023/09/09 09:03:51;;;;;;;12.93;8.50;;;;;;;20.67;100.00;101080.25;5029196;28;20415;-83
2023/09/09 09:06:27;;;;;;;13.68;8.32;;;;;;;20.85;100.00;101078.16;5024194;28;20475;-84
2023/09/09 09:09:00;;;;;;;13.55;8.60;;;;;;;20.99;100.00;101074.28;5044488;28;20450;-83
2023/09/09 09:11:28;;;;;;;13.13;8.02;;;;;;;21.00;100.00;101073.94;5036020;28;20430;-84
2023/09/09 09:14:06;;;;;;;12.65;8.43;;;;;;;20.93;100.00;101079.22;5040423;28;20455;-83
2023/09/09 09:16:42;;;;;;;13.63;8.48;;;;;;;21.17;100.00;101078.50;5031394;28;20432;-83
2023/09/09 09:19:18;;;;;;;13.75;8.32;;;;;;;21.32;100.00;101081.72;5031979;28;20419;-83
2023/09/09 09:21:51;;;;;;;13.37;8.17;;;;;;;21.56;100.00;101081.78;5033219;28;20430;-87
2023/09/09 09:24:26;;;;;;;11.98;7.88;;;;;;;21.53;100.00;101078.91;5029293;28;20419;-85
2023/09/09 09:26:59;;;;;;;13.07;7.70;;;;;;;21.35;100.00;101072.72;5028119;28;20429;-84
2023/09/09 09:29:39;;;;;;;11.97;7.70;;;;;;;21.38;100.00;101072.88;5046015;28;20423;-85
2023/09/09 09:32:15;;;;;;;13.55;8.00;;;;;;;21.49;100.00;101077.94;5032462;28;20430;-85
2023/09/09 09:34:50;;;;;;;12.77;7.38;;;;;;;21.50;100.00;101082.31;5031704;28;20419;-85
2023/09/09 09:37:19;;;;;;;12.90;7.75;;;;;;;21.66;100.00;101068.66;5030238;28;20427;-85
2023/09/09 09:39:47;;;;;;;12.63;7.10;;;;;;;21.76;100.00;101070.16;5030179;28;20427;-85
2023/09/09 09:42:20;;;;;;;12.90;7.55;;;;;;;21.80;100.00;101071.06;5031424;28;20920;-84
2023/09/09 09:44:48;;;;;;;13.60;7.50;;;;;;;21.92;100.00;101073.84;5030744;28;20423;-85
2023/09/09 09:47:23;;;;;;;14.77;7.53;;;;;;;21.90;100.00;101065.88;5044334;28;20419;-84
2023/09/09 09:49:56;;;;;;;11.15;6.65;;;;;;;22.12;100.00;101063.75;5047217;28;20442;-85
2023/09/09 09:52:26;;;;;;;12.48;6.68;;;;;;;22.24;100.00;101071.25;5025431;28;20442;-85
2023/09/09 09:54:59;;;;;;;12.18;6.72;;;;;;;22.09;100.00;101061.69;5045229;28;20431;-84
2023/09/09 09:57:32;;;;;;;11.20;6.60;;;;;;;21.99;100.00;101060.19;5029689;28;20437;-85
2023/09/09 10:00:00;;;;;;;10.45;6.43;;;;;;;22.27;100.00;101061.41;5029978;28;20458;-85
2023/09/09 10:02:41;;;;;;;11.73;6.63;;;;;;;22.25;100.00;101059.78;5034974;28;20507;-85
2023/09/09 10:05:15;;;;;;;11.15;6.32;;;;;;;22.48;100.00;101055.72;5023473;28;20522;-85
2023/09/09 10:07:52;;;;;;;10.65;6.45;;;;;;;22.49;100.00;101057.34;5029371;28;20434;-85
2023/09/09 10:10:26;;;;;;;10.63;6.53;;;;;;;22.66;100.00;101051.50;5029067;28;20431;-85
2023/09/09 10:13:02;;;;;;;10.07;6.10;;;;;;;22.79;100.00;101051.41;5030436;28;20434;-85
2023/09/09 10:15:37;;;;;;;13.05;6.47;;;;;;;23.09;100.00;101047.09;5027412;28;20440;-87
2023/09/09 10:18:12;;;;;;;12.00;6.57;;;;;;;23.12;100.00;101047.53;5045460;28;21064;-87
2023/09/09 10:20:42;;;;;;;12.13;6.38;;;;;;;23.00;100.00;101052.00;5026444;28;20435;-87
2023/09/09 10:23:12;;;;;;;10.07;6.30;;;;;;;23.17;100.00;101041.75;5030985;28;20422;-85
2023/09/09 10:25:42;;;;;;;9.65;5.50;;;;;;;23.06;100.00;101047.00;5031108;28;20430;-84
2023/09/09 10:28:12;;;;;;;10.83;6.13;;;;;;;23.22;100.00;101041.50;5030465;28;20412;-86
2023/09/09 10:30:42;;;;;;;9.57;6.27;;;;;;;23.19;100.00;101040.22;5027912;28;20433;-85
2023/09/09 10:33:21;;;;;;;11.70;5.85;;;;;;;23.35;100.00;101036.66;5044282;28;20438;-85
2023/09/09 10:35:55;;;;;;;9.97;5.73;;;;;;;23.67;100.00;101042.16;5027641;28;20435;-84
2023/09/09 10:38:28;;;;;;;11.95;5.90;;;;;;;23.49;100.00;101045.34;5030093;28;20887;-87
2023/09/09 10:41:02;;;;;;;11.15;5.93;;;;;;;23.56;100.00;101039.97;5045230;28;20450;-85
2023/09/09 10:43:36;;;;;;;9.80;5.90;;;;;;;23.49;100.00;101033.41;5028808;28;20434;-86
2023/09/09 10:46:09;;;;;;;10.20;6.10;;;;;;;23.43;100.00;101042.00;5027503;28;20427;-84
2023/09/09 10:48:45;;;;;;;10.88;5.57;;;;;;;23.74;100.00;101045.13;5029171;28;20433;-86
2023/09/09 10:51:15;;;;;;;11.70;5.70;;;;;;;23.76;92.84;101042.78;5027750;28;20899;-85
2023/09/09 10:53:43;;;;;;;10.52;5.75;;;;;;;23.75;100.00;101042.00;5030405;28;20752;-86
2023/09/09 10:56:24;;;;;;;9.43;5.60;;;;;;;24.17;94.49;101043.34;5042059;28;20494;-84
2023/09/09 10:58:57;;;;;;;13.48;6.20;;;;;;;24.06;98.96;101045.09;5028449;28;20423;-85
2023/09/09 11:01:30;;;;;;;10.18;5.68;;;;;;;24.09;93.89;101036.81;5028269;28;20458;-87
2023/09/09 11:03:59;;;;;;;13.25;6.10;;;;;;;23.89;100.00;101047.09;5027950;28;20457;-87
2023/09/09 11:06:33;;;;;;;11.43;5.85;;;;;;;23.71;100.00;101046.66;5045376;28;20419;-85
2023/09/09 11:09:03;;;;;;;9.68;6.20;;;;;;;23.70;100.00;101038.69;5028829;28;20419;-85
2023/09/09 11:11:35;;;;;;;9.98;5.82;;;;;;;23.88;100.00;101039.13;5028895;28;20435;-86
2023/09/09 11:14:08;;;;;;;9.30;5.40;;;;;;;24.06;100.00;101037.53;5025899;28;20919;-87
2023/09/09 11:16:43;;;;;;;10.37;5.70;;;;;;;24.04;100.00;101037.13;5028287;28;20458;-85
2023/09/09 11:19:14;;;;;;;11.52;5.90;;;;;;;24.13;97.83;101034.13;5023962;28;20423;-86
2023/09/09 11:21:45;;;;;;;9.65;5.80;;;;;;;24.35;95.27;101023.47;5026447;28;20795;-85
2023/09/09 11:24:19;;;;;;;9.68;5.57;;;;;;;24.81;79.42;101033.91;5043511;28;20419;-86
2023/09/09 11:26:52;;;;;;;10.13;5.70;;;;;;;24.64;80.47;101029.59;5027192;28;20457;-85
2023/09/09 11:29:20;;;;;;;10.85;5.90;;;;;;;24.35;100.00;101031.78;5029228;28;20760;-87